Other Surface Observations
Issued by NWS Missoula, MT

Home | Current Version | Previous Version | Text Only | Print | Product List | Glossary On
Versions: 1 2 3 4 5 6 7 8 9 10 11 12 13 14 15 16 17 18 19 20 21 22 23 24 25 26 27 28 29 30 31 32 33 34 35 36 37 38 39 40 41 42 43 44 45 46 47 48 49 50
371
SXUS55 KMSO 030443
OSOMSO
MONTANA AWOS SUMMARY
NATIONAL WEATHER SERVICE MISSOULA MT
1043 PM MDT FRI DEC 2 2016

Montana AWOS Reports

LAUREL      |K6S8 030435Z AUTO 24010KT 40SM M01/M12 A2998 RMK AO1 T10101121
TWIN BRIDGES|K7S1 030435Z AUTO 10008KT 40SM M01/M10 A3006 RMK AO1 T10101099
ROUNDUP     |KRPX 030435Z AUTO 17006KT 40SM M04/M12 A2989 RMK AO1 T10381121




USA.gov is the U.S. government's official web portal to all federal, state and local government web resources and services.